Time;durP1;ratioP1;P1;durP2;ratioP2;P2;SDS_P1;SDS_P2;PMS_P1;PMS_P2;Temp;Humidity;BMP_temperature;BMP_pressure;BME280_temperature;BME280_humidity;BME280_pressure;Samples;Min_cycle;Max_cycle;Signal;HPM_P1;HPM_P2
2022/01/11 00:00:31;;;;;;;21.30;17.83;;;4.90;1.00;5.90;101855.00;;;;5033261;28;20544;-81
2022/01/11 00:03:14;;;;;;;27.37;18.47;;;5.10;1.00;217.30;159216.00;;;;5028507;28;20488;-80
2022/01/11 00:05:51;;;;;;;23.87;18.53;;;5.10;1.00;5.90;67568.00;;;;5026302;28;20456;-82
2022/01/11 00:08:29;;;;;;;23.47;18.00;;;5.30;1.00;5.90;67573.00;;;;5028732;28;20996;-80
2022/01/11 00:11:03;;;;;;;24.33;18.30;;;5.10;1.00;6.00;101855.00;;;;5027053;28;20512;-80
2022/01/11 00:13:32;;;;;;;24.90;17.70;;;5.10;1.00;6.00;101861.00;;;;5023792;28;21012;-82
2022/01/11 00:16:01;;;;;;;23.03;18.60;;;5.10;1.00;6.00;101870.00;;;;5025309;28;21354;-81
2022/01/11 00:18:30;;;;;;;21.83;16.90;;;5.10;1.00;5.90;67573.00;;;;5027740;28;20494;-81
2022/01/11 00:21:00;;;;;;;23.33;17.83;;;5.10;1.00;5.90;67568.00;;;;5030623;28;20492;-81
2022/01/11 00:26:15;;;;;;;25.40;18.20;;;5.20;1.00;217.30;159226.00;;;;5025146;28;20471;-80
2022/01/11 00:28:44;;;;;;;24.90;18.47;;;5.20;1.00;5.90;67560.00;;;;5025137;28;20556;-81
2022/01/11 00:31:32;;;;;;;26.50;18.17;;;5.00;1.00;5.80;101824.00;;;;5021788;28;20862;-81
2022/01/11 00:34:02;;;;;;;25.23;17.50;;;4.90;1.00;5.80;67533.00;;;;5018343;28;20465;-80
2022/01/11 00:36:41;;;;;;;23.50;18.70;;;5.00;1.00;5.70;67526.00;;;;5021229;28;20500;-80
2022/01/11 00:39:12;;;;;;;23.43;18.20;;;5.00;1.00;5.70;67515.00;;;;5028306;28;20465;-81
2022/01/11 00:41:42;;;;;;;22.67;18.53;;;5.00;1.00;5.70;101874.00;;;;5022002;28;20495;-80
2022/01/11 00:44:12;;;;;;;25.20;19.87;;;4.90;1.00;5.60;67512.00;;;;5028217;28;20468;-80
2022/01/11 00:46:41;;;;;;;30.00;18.67;;;5.00;1.00;5.70;67513.00;;;;5031467;28;20992;-80
2022/01/11 00:49:10;;;;;;;24.07;17.90;;;4.90;1.00;5.70;67509.00;;;;5031942;28;20534;-81
2022/01/11 00:51:39;;;;;;;25.80;18.73;;;4.80;1.00;5.70;101857.00;;;;5057052;28;20544;-83
2022/01/11 00:54:08;;;;;;;24.23;17.80;;;4.80;1.00;5.70;67512.00;;;;5033895;28;20511;-81
2022/01/11 00:56:36;;;;;;;26.33;19.27;;;4.70;1.00;5.70;67513.00;;;;5021060;28;20493;-79
2022/01/11 00:59:05;;;;;;;26.50;18.00;;;4.70;1.00;5.70;101874.00;;;;5015929;28;20453;-79
2022/01/11 01:01:37;;;;;;;24.60;18.13;;;4.80;1.00;5.70;101875.00;;;;5024919;28;20483;-79
2022/01/11 01:04:07;;;;;;;24.83;18.30;;;4.90;1.00;5.70;67524.00;;;;5023670;28;20552;-81
2022/01/11 01:06:37;;;;;;;23.93;18.93;;;4.90;1.00;5.70;101859.00;;;;5021601;28;20457;-80
2022/01/11 01:09:08;;;;;;;25.60;18.83;;;4.90;1.00;5.70;101882.00;;;;5047605;28;20481;-80
2022/01/11 01:11:43;;;;;;;26.93;18.30;;;4.80;1.00;5.70;67515.00;;;;5032915;28;20482;-81
2022/01/11 01:14:12;;;;;;;26.43;18.50;;;4.90;1.00;217.30;159119.00;;;;5046902;28;20449;-81
2022/01/11 01:16:41;;;;;;;25.80;18.77;;;5.00;1.00;5.70;67512.00;;;;5053014;28;20449;-81
2022/01/11 01:19:26;;;;;;;21.50;17.13;;;5.00;1.00;5.60;67500.00;;;;5036601;28;20988;-79
2022/01/11 01:21:57;;;;;;;28.27;19.50;;;5.00;1.00;5.60;101893.00;;;;5052640;28;20473;-81
2022/01/11 01:24:27;;;;;;;22.17;17.20;;;4.80;1.00;5.50;101892.00;;;;5032498;28;21127;-80
2022/01/11 01:26:55;;;;;;;22.77;18.20;;;4.80;1.00;5.50;67464.00;;;;5035424;28;20479;-80
2022/01/11 01:29:24;;;;;;;28.97;19.13;;;4.60;1.00;5.40;101886.00;;;;5046830;28;20500;-80
2022/01/11 01:31:52;;;;;;;25.37;18.60;;;4.60;1.00;5.40;101892.00;;;;5023887;28;20928;-80
2022/01/11 01:34:21;;;;;;;25.20;18.87;;;4.60;1.00;5.40;67449.00;;;;5028658;28;20459;-80
2022/01/11 01:36:49;;;;;;;25.20;18.40;;;4.50;1.00;5.40;67443.00;;;;5046814;28;20437;-79
2022/01/11 01:39:18;;;;;;;28.00;18.60;;;4.50;1.00;5.40;101906.00;;;;5027987;28;20453;-80
2022/01/11 01:41:49;;;;;;;25.67;18.80;;;4.40;1.00;5.40;101902.00;;;;5032321;28;20469;-79
2022/01/11 01:44:17;;;;;;;23.90;18.57;;;4.60;1.00;5.40;67453.00;;;;5031927;28;20456;-82
2022/01/11 01:46:45;;;;;;;23.97;19.40;;;4.50;1.00;5.40;67452.00;;;;5032174;28;20520;-81
2022/01/11 01:49:17;;;;;;;27.30;20.20;;;4.50;1.00;5.40;101898.00;;;;5025842;28;20484;-80
2022/01/11 01:51:46;;;;;;;24.50;18.50;;;4.50;1.00;52.70;158970.00;;;;5041172;28;20473;-79
2022/01/11 01:54:16;;;;;;;26.93;18.67;;;4.60;1.00;5.30;101897.00;;;;5021799;28;20455;-81
2022/01/11 01:56:45;;;;;;;27.27;20.03;;;4.40;1.00;5.30;67432.00;;;;5028641;28;20452;-79
2022/01/11 01:59:15;;;;;;;29.40;20.40;;;4.30;1.00;5.30;67427.00;;;;5033180;28;20475;-80
2022/01/11 02:01:46;;;;;;;27.37;20.47;;;4.40;1.00;5.30;101921.00;;;;5015377;28;20487;-79
2022/01/11 02:04:17;;;;;;;26.97;20.73;;;4.30;1.00;5.20;67419.00;;;;5016498;28;20488;-80
2022/01/11 02:06:46;;;;;;;29.07;21.20;;;4.40;1.00;5.30;101900.00;;;;5018386;28;20445;-78
2022/01/11 02:09:16;;;;;;;25.50;19.60;;;4.30;1.00;5.20;101896.00;;;;5021519;28;20457;-80
2022/01/11 02:11:47;;;;;;;44.67;21.70;;;4.50;1.00;5.20;101920.00;;;;5013896;28;20536;-79
2022/01/11 02:14:19;;;;;;;25.83;19.20;;;4.30;1.00;5.20;101920.00;;;;5023464;28;20459;-78
2022/01/11 02:16:48;;;;;;;30.63;22.20;;;4.00;1.00;5.10;101924.00;;;;5023711;28;20458;-79
2022/01/11 02:19:17;;;;;;;29.37;22.37;;;4.30;1.00;5.10;101926.00;;;;5032504;28;20462;-80
2022/01/11 02:21:47;;;;;;;27.97;21.23;;;4.30;1.00;5.10;101921.00;;;;5039575;28;21001;-78
2022/01/11 02:24:16;;;;;;;28.90;21.23;;;4.30;1.00;5.00;101925.00;;;;5021968;28;20461;-80
2022/01/11 02:26:45;;;;;;;32.70;22.17;;;4.30;1.00;4.90;101916.00;;;;5041608;28;20445;-80
2022/01/11 02:29:14;;;;;;;29.60;21.30;;;4.20;1.00;4.90;101920.00;;;;5022384;28;20599;-78
2022/01/11 02:31:43;;;;;;;28.53;20.37;;;4.10;1.00;4.90;101919.00;;;;5017388;28;20588;-79
2022/01/11 02:34:13;;;;;;;31.80;23.40;;;4.10;1.00;4.90;101931.00;;;;5039774;28;20469;-80
2022/01/11 02:37:18;;;;;;;29.40;21.33;;;4.10;1.00;5.00;67357.00;;;;5004652;28;20453;-79
2022/01/11 02:39:53;;;;;;;29.70;22.17;;;4.00;1.00;5.00;101928.00;;;;5024897;28;21032;-80
2022/01/11 02:42:32;;;;;;;33.03;23.40;;;4.00;1.00;5.00;101931.00;;;;5033516;28;20465;-79
2022/01/11 02:45:00;;;;;;;28.90;21.80;;;4.00;1.00;217.30;158826.00;;;;5024648;28;21062;-78
2022/01/11 02:47:33;;;;;;;31.73;22.57;;;4.10;1.00;5.00;101916.00;;;;5046291;28;20445;-78
2022/01/11 02:50:03;;;;;;;28.53;21.17;;;4.20;1.00;5.00;101929.00;;;;5053487;28;20485;-79
2022/01/11 02:52:38;;;;;;;31.10;21.90;;;4.30;1.00;5.00;101921.00;;;;5048075;28;20452;-80
2022/01/11 02:55:11;;;;;;;31.33;21.20;;;4.10;1.00;5.00;101922.00;;;;5039357;28;20484;-80
2022/01/11 02:57:40;;;;;;;28.33;21.60;;;4.10;1.00;5.00;101922.00;;;;5038252;28;20452;-78
2022/01/11 03:00:22;;;;;;;29.60;20.77;;;4.20;1.00;5.10;101935.00;;;;5034296;28;20562;-79
2022/01/11 03:02:51;;;;;;;26.53;21.50;;;4.00;1.00;217.30;158836.00;;;;5053911;28;20462;-79
2022/01/11 03:05:26;;;;;;;27.93;20.77;;;4.10;1.00;52.70;158848.00;;;;5032274;28;20445;-79
2022/01/11 03:07:58;;;;;;;28.10;20.60;;;4.30;1.00;5.00;67368.00;;;;5039281;28;21937;-79
2022/01/11 03:10:32;;;;;;;28.83;19.80;;;4.40;1.00;5.10;101923.00;;;;5031277;28;20496;-78
2022/01/11 03:13:03;;;;;;;29.40;19.70;;;4.30;1.00;5.10;67390.00;;;;5049358;28;20452;-79
2022/01/11 03:15:32;;;;;;;27.27;19.90;;;4.20;1.00;217.30;158893.00;;;;5049105;28;20450;-79
2022/01/11 03:18:05;;;;;;;28.80;19.83;;;4.20;1.00;5.20;67395.00;;;;5035791;28;20966;-79
2022/01/11 03:20:40;;;;;;;29.73;20.23;;;4.20;1.00;5.20;101939.00;;;;5047240;28;20488;-77
2022/01/11 03:23:12;;;;;;;26.83;20.07;;;4.20;1.00;5.20;101948.00;;;;5045689;28;20456;-79
2022/01/11 03:25:41;;;;;;;25.70;19.93;;;4.30;1.00;5.30;67422.00;;;;5021750;28;20452;-79
2022/01/11 03:28:12;;;;;;;27.87;22.17;;;4.30;1.00;5.30;67427.00;;;;5042914;28;20466;-79
2022/01/11 03:30:41;;;;;;;25.37;19.77;;;4.30;1.00;52.70;158941.00;;;;5020297;28;21426;-78
2022/01/11 03:33:11;;;;;;;26.50;18.60;;;4.40;1.00;5.40;101962.00;;;;5047042;28;20472;-79
2022/01/11 03:35:43;;;;;;;24.57;19.77;;;4.50;1.00;5.40;101958.00;;;;5043271;28;20471;-79
2022/01/11 03:38:14;;;;;;;26.47;19.30;;;4.50;1.00;5.40;67449.00;;;;5043095;28;20457;-79
2022/01/11 03:40:47;;;;;;;28.77;19.43;;;4.40;1.00;5.40;101953.00;;;;5050684;28;20483;-81
2022/01/11 03:43:15;;;;;;;24.20;18.47;;;4.50;1.00;5.40;101967.00;;;;5048220;28;20530;-80
2022/01/11 03:45:44;;;;;;;28.50;19.23;;;4.40;1.00;5.50;101722.00;;;;5042586;28;20531;-78
2022/01/11 03:48:15;;;;;;;28.83;18.73;;;4.50;1.00;5.40;101964.00;;;;5036307;28;20461;-79
2022/01/11 03:50:49;;;;;;;25.90;19.97;;;4.40;1.00;217.30;159012.00;;;;5025325;28;21195;-78
2022/01/11 03:53:27;;;;;;;26.00;18.80;;;4.50;1.00;5.50;101960.00;;;;5023513;28;20463;-78
2022/01/11 03:56:21;;;;;;;23.93;18.67;;;4.60;1.00;5.50;101963.00;;;;5042981;28;20540;-79
2022/01/11 03:58:55;;;;;;;25.93;18.23;;;4.80;1.00;5.60;101963.00;;;;5026685;28;20456;-79
2022/01/11 04:01:25;;;;;;;27.47;19.87;;;4.70;1.00;217.30;159036.00;;;;5034123;28;20505;-78
2022/01/11 04:03:54;;;;;;;23.57;17.73;;;4.60;1.00;5.50;101959.00;;;;5024908;28;20442;-78
2022/01/11 04:06:22;;;;;;;23.87;18.13;;;4.60;1.00;5.50;67479.00;;;;5026219;28;20514;-78
2022/01/11 04:08:52;;;;;;;23.90;17.87;;;4.70;1.00;5.50;67479.00;;;;5044804;28;20460;-78
2022/01/11 04:11:21;;;;;;;24.00;17.63;;;4.60;1.00;5.50;67490.00;;;;5036878;28;20488;-79
2022/01/11 04:13:49;;;;;;;22.80;17.53;;;4.70;1.00;5.60;101975.00;;;;5023756;28;20546;-79
2022/01/11 04:16:18;;;;;;;23.13;17.83;;;5.10;1.00;5.60;101972.00;;;;5033509;28;20445;-79
2022/01/11 04:18:46;;;;;;;23.80;17.70;;;5.00;1.00;5.60;101974.00;;;;5038286;28;20462;-79
2022/01/11 04:21:15;;;;;;;24.60;18.40;;;4.80;1.00;217.30;159086.00;;;;5024835;28;20523;-78
2022/01/11 04:23:46;;;;;;;21.07;16.40;;;4.80;1.00;5.60;67487.00;;;;5038811;28;20468;-79
2022/01/11 04:26:16;;;;;;;25.23;17.43;;;4.60;1.00;5.50;67479.00;;;;5042027;28;21387;-79
2022/01/11 04:28:45;;;;;;;21.47;15.50;;;4.60;1.00;217.30;159036.00;;;;5023778;28;20535;-79
2022/01/11 04:31:13;;;;;;;22.30;16.43;;;4.60;1.00;5.50;101994.00;;;;5028959;28;20634;-80
2022/01/11 04:33:43;;;;;;;22.53;16.60;;;4.60;1.00;5.40;67452.00;;;;5037394;28;20456;-78
2022/01/11 04:36:13;;;;;;;22.93;15.70;;;4.40;1.00;5.30;67436.00;;;;5039210;28;20464;-79
2022/01/11 04:38:43;;;;;;;22.87;16.20;;;4.40;1.00;52.70;158941.00;;;;5035820;28;20788;-81
2022/01/11 04:41:13;;;;;;;24.10;15.33;;;4.30;1.00;5.30;67433.00;;;;5041764;28;20494;-79
2022/01/11 04:43:47;;;;;;;23.33;15.83;;;4.30;1.00;5.30;67436.00;;;;5024305;28;20454;-78
2022/01/11 04:46:18;;;;;;;20.90;14.90;;;4.40;1.00;5.20;67417.00;;;;5025300;28;20457;-79
2022/01/11 04:48:50;;;;;;;21.37;16.13;;;4.30;1.00;5.20;101995.00;;;;5035899;28;20441;-80
2022/01/11 04:51:20;;;;;;;21.43;16.00;;;4.30;1.00;5.30;67420.00;;;;5021956;28;20570;-80
2022/01/11 04:53:50;;;;;;;21.80;17.20;;;4.30;1.00;5.30;67422.00;;;;5019906;28;20515;-79
2022/01/11 04:56:20;;;;;;;25.17;18.77;;;4.30;1.00;5.40;102004.00;;;;5034050;28;20487;-79
2022/01/11 04:58:50;;;;;;;23.33;17.73;;;4.50;1.00;5.40;67449.00;;;;5035128;28;20458;-78
2022/01/11 05:01:19;;;;;;;25.30;18.33;;;4.50;1.00;5.40;101998.00;;;;5027134;28;20939;-78
2022/01/11 05:03:48;;;;;;;23.30;18.30;;;4.60;1.00;5.50;67476.00;;;;5054214;28;20540;-79
2022/01/11 05:06:16;;;;;;;20.60;17.63;;;4.70;1.00;5.50;102003.00;;;;5036121;28;20465;-79
2022/01/11 05:08:46;;;;;;;26.10;17.37;;;4.70;1.00;5.50;102013.00;;;;5046735;28;20458;-79
2022/01/11 05:11:14;;;;;;;26.37;18.07;;;4.70;1.00;5.60;101999.00;;;;5025980;28;20573;-79
2022/01/11 05:13:43;;;;;;;24.83;17.57;;;4.90;1.00;5.60;67495.00;;;;5033007;28;20507;-79
2022/01/11 05:16:28;;;;;;;23.40;18.07;;;4.80;1.00;5.60;102013.00;;;;5036347;28;20485;-79
2022/01/11 05:18:57;;;;;;;26.17;18.53;;;4.80;1.00;5.60;102007.00;;;;5040867;28;21031;-80
2022/01/11 05:21:25;;;;;;;24.03;18.00;;;5.10;1.00;5.70;67515.00;;;;5019792;28;20485;-78
2022/01/11 05:23:53;;;;;;;25.10;17.70;;;4.90;1.00;5.70;67509.00;;;;5036738;28;20453;-80
2022/01/11 05:26:23;;;;;;;25.40;18.40;;;4.90;1.00;217.30;159113.00;;;;5026583;28;20465;-79
2022/01/11 05:28:51;;;;;;;26.13;17.37;;;4.80;1.00;5.60;102018.00;;;;5047614;28;20452;-79
2022/01/11 05:31:20;;;;;;;28.23;20.60;;;4.70;1.00;5.60;102018.00;;;;5034832;28;20513;-80
2022/01/11 05:33:50;;;;;;;23.13;17.17;;;4.60;1.00;5.60;102009.00;;;;5019352;28;20941;-80
2022/01/11 05:36:18;;;;;;;27.03;17.40;;;4.70;1.00;5.60;102017.00;;;;5042213;28;20450;-79
2022/01/11 05:38:47;;;;;;;23.90;16.27;;;4.70;1.00;5.60;102006.00;;;;5022807;28;20458;-79
2022/01/11 05:41:15;;;;;;;21.20;16.37;;;4.70;1.00;5.70;67507.00;;;;5015245;28;20477;-79
2022/01/11 05:43:44;;;;;;;24.10;16.10;;;4.70;1.00;5.70;102016.00;;;;5020762;28;20454;-77
2022/01/11 05:46:13;;;;;;;20.37;15.37;;;4.80;1.00;5.60;102014.00;;;;5033481;28;20476;-78
2022/01/11 05:48:44;;;;;;;21.80;15.80;;;4.70;1.00;5.60;102010.00;;;;5050212;28;20445;-78
2022/01/11 05:51:15;;;;;;;23.17;16.13;;;4.70;1.00;5.60;102024.00;;;;5032173;28;20512;-78
2022/01/11 05:53:44;;;;;;;21.40;16.43;;;4.70;1.00;5.60;102023.00;;;;5014988;28;20457;-78
2022/01/11 05:56:13;;;;;;;24.30;16.70;;;4.70;1.00;5.70;102028.00;;;;5022109;28;20446;-78
2022/01/11 05:58:41;;;;;;;20.10;15.33;;;4.80;1.00;5.70;102034.00;;;;5031138;28;20965;-78
2022/01/11 06:01:10;;;;;;;23.27;17.40;;;4.80;1.00;5.80;102039.00;;;;5026039;28;20499;-78
2022/01/11 06:03:39;;;;;;;24.90;16.20;;;4.90;1.00;5.80;102035.00;;;;5017302;28;20997;-78
2022/01/11 06:06:07;;;;;;;20.80;16.00;;;4.90;1.00;5.80;102032.00;;;;5021994;28;20457;-78
2022/01/11 06:08:37;;;;;;;23.33;15.63;;;5.00;1.00;5.80;102043.00;;;;5031461;28;20461;-78
2022/01/11 06:11:07;;;;;;;22.13;16.43;;;4.90;1.00;5.80;102033.00;;;;5027736;28;20477;-78
2022/01/11 06:13:38;;;;;;;20.90;16.60;;;4.90;1.00;5.80;102051.00;;;;5029022;28;20472;-79
2022/01/11 06:16:07;;;;;;;22.40;16.50;;;5.00;1.00;5.90;102042.00;;;;5020587;28;20461;-79
2022/01/11 06:18:36;;;;;;;25.00;17.57;;;5.10;1.00;5.90;67560.00;;;;5033034;28;20469;-78
2022/01/11 06:21:19;;;;;;;21.60;16.30;;;5.10;1.00;5.90;67556.00;;;;5036310;28;20500;-78
2022/01/11 06:23:49;;;;;;;21.40;15.73;;;5.10;1.00;217.30;159207.00;;;;5037291;28;20449;-78
2022/01/11 06:26:19;;;;;;;21.50;15.37;;;5.10;1.00;5.80;102045.00;;;;5021162;28;20446;-78
2022/01/11 06:28:47;;;;;;;27.37;16.40;;;5.10;1.00;5.80;102046.00;;;;5028908;28;20471;-78
2022/01/11 06:31:16;;;;;;;25.30;15.43;;;5.10;1.00;5.80;102070.00;;;;5015911;28;20477;-79
2022/01/11 06:33:44;;;;;;;23.33;15.07;;;5.00;1.00;5.80;102059.00;;;;5014741;28;20477;-78
2022/01/11 06:36:18;;;;;;;22.23;15.83;;;5.00;1.00;5.80;67531.00;;;;5020151;28;20465;-79
2022/01/11 06:38:49;;;;;;;23.07;17.30;;;4.90;1.00;5.70;67513.00;;;;5035861;28;20514;-78
2022/01/11 06:41:24;;;;;;;21.23;15.30;;;4.80;1.00;217.30;159123.00;;;;5020984;28;20469;-79
2022/01/11 06:43:54;;;;;;;21.63;15.30;;;4.90;1.00;5.80;102061.00;;;;5033151;28;20475;-79
2022/01/11 06:46:24;;;;;;;21.03;15.33;;;5.00;1.00;5.80;67531.00;;;;5033478;28;20464;-80
2022/01/11 06:48:54;;;;;;;19.80;15.10;;;4.90;1.00;5.80;102075.00;;;;5033686;28;20521;-78
2022/01/11 06:51:23;;;;;;;21.67;15.10;;;4.90;1.00;5.70;102058.00;;;;5019138;28;20473;-79
2022/01/11 06:53:53;;;;;;;18.90;14.90;;;4.90;1.00;217.30;159107.00;;;;5021563;28;20819;-79
2022/01/11 06:56:22;;;;;;;20.77;15.17;;;4.80;1.00;5.70;102062.00;;;;5010182;28;20492;-79
2022/01/11 06:58:54;;;;;;;22.83;15.93;;;4.80;1.00;5.70;102065.00;;;;5016400;28;20458;-79
2022/01/11 07:01:23;;;;;;;23.37;15.97;;;4.80;1.00;5.70;102081.00;;;;5021024;28;20568;-79
2022/01/11 07:03:57;;;;;;;22.00;15.50;;;4.80;1.00;5.80;102078.00;;;;5019637;28;20465;-79
2022/01/11 07:06:28;;;;;;;22.33;15.67;;;4.90;1.00;5.80;102075.00;;;;5014469;28;20461;-79
2022/01/11 07:08:58;;;;;;;17.17;14.47;;;4.90;1.00;5.70;102079.00;;;;5029701;28;20462;-79
2022/01/11 07:11:31;;;;;;;21.17;15.90;;;4.80;1.00;5.70;67524.00;;;;5026512;28;20480;-79
2022/01/11 07:14:03;;;;;;;17.97;13.87;;;4.80;1.00;5.70;67513.00;;;;5021222;28;20548;-79
2022/01/11 07:16:33;;;;;;;22.07;16.23;;;4.80;1.00;5.70;102087.00;;;;5027007;28;20531;-78
2022/01/11 07:19:02;;;;;;;20.40;14.53;;;4.80;1.00;5.80;102080.00;;;;5023583;28;20499;-79
2022/01/11 07:21:34;;;;;;;22.93;15.40;;;4.80;1.00;5.80;102106.00;;;;5021478;28;20481;-79
2022/01/11 07:24:07;;;;;;;25.13;16.53;;;5.10;1.00;5.90;102107.00;;;;5032726;28;20464;-79
2022/01/11 07:26:36;;;;;;;18.50;14.73;;;5.20;1.00;5.90;102100.00;;;;5042243;28;20457;-79
2022/01/11 07:29:05;;;;;;;17.97;13.80;;;5.10;1.00;5.70;67526.00;;;;5038558;28;20454;-79
2022/01/11 07:31:34;;;;;;;23.13;16.13;;;4.90;1.00;5.70;102108.00;;;;5031233;28;20501;-79
2022/01/11 07:34:03;;;;;;;23.00;15.70;;;4.80;1.00;5.60;102101.00;;;;5020563;28;20485;-79
2022/01/11 07:36:33;;;;;;;23.27;16.00;;;4.70;1.00;5.60;102113.00;;;;5022774;28;20489;-80
2022/01/11 07:39:07;;;;;;;19.73;15.10;;;4.80;1.00;5.60;67504.00;;;;5032147;28;20525;-79
2022/01/11 07:41:36;;;;;;;23.60;16.00;;;4.70;1.00;5.70;67513.00;;;;5027261;28;20473;-78
2022/01/11 07:44:16;;;;;;;23.60;16.33;;;4.70;1.00;5.70;67515.00;;;;5038968;28;20504;-78
2022/01/11 07:46:46;;;;;;;23.77;15.13;;;4.70;1.00;5.70;102112.00;;;;5025531;28;20497;-78
2022/01/11 07:49:26;;;;;;;20.27;15.37;;;4.70;1.00;5.60;67490.00;;;;5034425;28;20453;-78
2022/01/11 07:51:54;;;;;;;24.67;16.57;;;4.70;1.00;217.30;159070.00;;;;5034830;28;20476;-78
2022/01/11 07:54:24;;;;;;;25.07;15.90;;;4.60;1.00;5.50;67469.00;;;;5032598;28;20527;-78
2022/01/11 07:56:56;;;;;;;25.40;16.17;;;4.60;1.00;5.50;102120.00;;;;5024064;28;20508;-78
2022/01/11 07:59:24;;;;;;;20.53;14.90;;;4.50;1.00;5.60;67502.00;;;;5018832;28;20442;-78
2022/01/11 08:02:14;;;;;;;21.10;15.87;;;4.70;1.00;5.60;102122.00;;;;5033872;28;20865;-79
2022/01/11 08:04:43;;;;;;;25.60;15.70;;;4.70;1.00;5.70;67512.00;;;;5043531;28;21011;-79
2022/01/11 08:07:12;;;;;;;22.53;15.80;;;4.70;1.00;5.70;102115.00;;;;5037795;28;20449;-79
2022/01/11 08:09:52;;;;;;;22.10;15.83;;;4.80;1.00;5.80;102126.00;;;;5031482;28;20484;-79
2022/01/11 08:12:20;;;;;;;24.63;15.77;;;4.80;1.00;5.80;102135.00;;;;5043843;28;20994;-79
2022/01/11 08:14:49;;;;;;;20.70;15.07;;;4.80;1.00;5.90;67560.00;;;;5054441;28;20458;-79
2022/01/11 08:17:18;;;;;;;22.70;14.73;;;5.00;1.00;5.90;102138.00;;;;5036754;28;20484;-77
2022/01/11 08:19:46;;;;;;;23.27;16.10;;;5.10;1.00;6.00;102134.00;;;;5025097;28;20540;-78
2022/01/11 08:22:18;;;;;;;29.90;23.03;;;5.20;1.00;6.10;102133.00;;;;5026391;28;20464;-78
2022/01/11 08:24:56;;;;;;;25.87;19.33;;;5.20;1.00;6.20;102135.00;;;;5029741;28;20488;-79
2022/01/11 08:27:26;;;;;;;25.97;18.37;;;5.40;1.00;6.30;102138.00;;;;5038401;28;20514;-78
2022/01/11 08:29:54;;;;;;;25.00;18.90;;;5.70;1.00;6.40;67674.00;;;;5021680;28;20882;-78
2022/01/11 08:32:23;;;;;;;25.43;17.27;;;5.70;1.00;6.50;67693.00;;;;5021175;28;20464;-79
2022/01/11 08:34:51;;;;;;;23.17;18.20;;;5.80;1.00;6.50;102136.00;;;;5021439;28;20480;-79
2022/01/11 08:37:20;;;;;;;23.37;16.80;;;5.80;1.00;6.60;102149.00;;;;5022804;28;20456;-79
2022/01/11 08:39:50;;;;;;;21.27;15.40;;;6.00;1.00;6.70;102134.00;;;;5026280;28;20464;-78
2022/01/11 08:42:20;;;;;;;29.37;19.17;;;5.90;1.00;6.70;67734.00;;;;5036626;28;20448;-79
2022/01/11 08:44:50;;;;;;;32.73;22.30;;;5.90;1.00;6.70;67737.00;;;;5047523;28;20492;-79
2022/01/11 08:47:25;;;;;;;26.90;19.20;;;5.90;1.00;217.30;159577.00;;;;5037943;28;20461;-80
2022/01/11 08:49:53;;;;;;;25.20;16.80;;;5.90;1.00;6.80;67756.00;;;;5030049;28;20453;-78
2022/01/11 08:52:22;;;;;;;23.60;18.57;;;5.90;1.00;6.90;67775.00;;;;5043357;28;20452;-79
2022/01/11 08:54:52;;;;;;;23.80;16.07;;;6.10;1.00;6.90;102159.00;;;;5028050;28;20469;-79
2022/01/11 08:57:22;;;;;;;18.83;14.83;;;6.20;1.00;6.90;102149.00;;;;5029975;28;20449;-79
2022/01/11 08:59:52;;;;;;;19.67;14.43;;;6.20;1.00;6.90;67774.00;;;;5032282;28;20476;-79
2022/01/11 09:02:21;;;;;;;23.83;14.67;;;6.20;1.00;6.80;102174.00;;;;5041553;28;20511;-78
2022/01/11 09:04:53;;;;;;;19.10;14.20;;;6.10;1.00;6.90;102158.00;;;;5035190;28;20484;-79
2022/01/11 09:07:27;;;;;;;17.57;13.23;;;6.10;1.00;6.90;102173.00;;;;5035549;28;20540;-79
2022/01/11 09:09:58;;;;;;;20.47;15.00;;;6.10;1.00;6.90;102170.00;;;;5033650;28;20460;-80
2022/01/11 09:12:28;;;;;;;17.47;13.47;;;6.20;1.00;7.00;67799.00;;;;5026856;28;20462;-80
2022/01/11 09:14:58;;;;;;;18.10;12.80;;;6.20;1.00;7.10;67828.00;;;;5027737;28;20477;-80
2022/01/11 09:17:27;;;;;;;19.73;13.17;;;6.40;1.00;7.10;67831.00;;;;5027425;28;20459;-79
2022/01/11 09:19:56;;;;;;;17.20;12.60;;;6.50;1.00;7.10;67843.00;;;;5026890;28;20461;-78
2022/01/11 09:22:25;;;;;;;16.80;13.10;;;6.40;1.00;7.20;102177.00;;;;5017754;28;20934;-79
2022/01/11 09:24:56;;;;;;;16.53;12.20;;;6.50;1.00;7.30;102182.00;;;;5026694;28;20819;-78
2022/01/11 09:27:29;;;;;;;15.60;12.70;;;6.70;1.00;7.30;102175.00;;;;5036429;28;20487;-77
2022/01/11 09:30:06;;;;;;;18.23;11.70;;;6.70;1.00;7.40;102182.00;;;;5037498;28;20491;-78
2022/01/11 09:32:38;;;;;;;15.23;12.70;;;6.70;1.00;7.50;102193.00;;;;5034903;28;20533;-78
2022/01/11 09:35:10;;;;;;;19.87;12.67;;;6.90;1.00;7.50;102187.00;;;;5037146;28;20482;-78
2022/01/11 09:37:39;;;;;;;15.50;12.30;;;6.90;1.00;7.50;67924.00;;;;5024529;28;20452;-78
2022/01/11 09:40:11;;;;;;;17.37;13.93;;;6.90;1.00;7.50;102191.00;;;;5027700;28;20545;-78
2022/01/11 09:42:44;;;;;;;16.87;12.63;;;6.80;1.00;7.60;102191.00;;;;5024314;28;20456;-78
2022/01/11 09:45:14;;;;;;;15.17;12.50;;;6.80;1.00;7.70;102199.00;;;;5018844;28;20607;-78
2022/01/11 09:47:47;;;;;;;14.97;12.43;;;6.90;1.00;7.70;102198.00;;;;5033141;28;20477;-78
2022/01/11 09:50:20;;;;;;;20.63;12.67;;;7.00;1.00;7.70;102198.00;;;;5017985;28;20492;-78
2022/01/11 09:52:59;;;;;;;14.97;11.70;;;7.10;1.00;7.50;102187.00;;;;5034522;28;20468;-78
2022/01/11 09:55:31;;;;;;;17.53;12.60;;;6.90;1.00;7.70;67963.00;;;;5037520;28;20481;-79
2022/01/11 09:58:03;;;;;;;18.23;13.10;;;7.10;1.00;7.70;67963.00;;;;5019711;28;20461;-78
2022/01/11 10:00:50;;;;;;;17.30;13.50;;;7.10;1.00;7.80;102191.00;;;;5018859;28;20522;-78
2022/01/11 10:03:56;;;;;;;14.90;11.53;;;7.00;1.00;7.90;102192.00;;;;5018351;28;20449;-78
2022/01/11 10:06:32;;;;;;;19.47;13.70;;;7.20;1.00;8.00;68029.00;;;;5041750;28;20454;-79
2022/01/11 10:09:16;;;;;;;18.27;13.37;;;7.30;1.00;8.00;102195.00;;;;5019495;28;20455;-79
2022/01/11 10:11:48;;;;;;;18.03;13.33;;;7.40;1.00;7.90;102195.00;;;;5025272;28;20651;-79
2022/01/11 10:14:31;;;;;;;18.73;13.00;;;7.40;1.00;7.90;102198.00;;;;5023191;28;21367;-79
2022/01/11 10:17:12;;;;;;;15.87;12.30;;;7.40;1.00;7.90;102191.00;;;;5044967;28;20458;-78
2022/01/11 10:19:45;;;;;;;18.97;12.20;;;7.30;1.00;7.80;67990.00;;;;5026439;28;20468;-79
2022/01/11 10:22:19;;;;;;;17.63;12.77;;;7.20;1.00;7.90;102199.00;;;;5024633;28;20548;-78
2022/01/11 10:24:49;;;;;;;17.43;13.63;;;7.30;1.00;7.90;102201.00;;;;5032177;28;20462;-79
2022/01/11 10:27:31;;;;;;;15.43;12.40;;;7.30;1.00;7.80;102183.00;;;;5029567;28;20445;-79
2022/01/11 10:30:08;;;;;;;16.40;11.80;;;7.30;1.00;7.80;102192.00;;;;5035837;28;21257;-78
2022/01/11 10:32:40;;;;;;;15.80;11.63;;;7.20;1.00;7.80;102192.00;;;;5035284;28;20464;-79
2022/01/11 10:35:42;;;;;;;15.10;11.80;;;7.30;1.00;7.80;102188.00;;;;5012598;28;20501;-78
2022/01/11 10:38:28;;;;;;;13.97;11.67;;;7.40;1.00;7.80;102197.00;;;;5039554;28;20462;-78
2022/01/11 10:41:02;;;;;;;17.23;11.80;;;7.20;1.00;7.80;102189.00;;;;5040970;28;20489;-79
2022/01/11 10:43:43;;;;;;;16.37;11.20;;;7.30;1.00;7.80;102204.00;;;;5038858;28;20463;-78
2022/01/11 10:46:21;;;;;;;18.67;11.60;;;7.30;1.00;7.90;102199.00;;;;5032363;28;20529;-78
2022/01/11 10:49:11;;;;;;;17.87;12.47;;;7.40;1.00;7.90;102210.00;;;;5023967;28;20883;-78
2022/01/11 10:51:39;;;;;;;19.23;14.03;;;7.40;1.00;8.00;101926.00;;;;5030214;28;20504;-78
2022/01/11 10:54:10;;;;;;;18.23;13.40;;;7.40;1.00;217.30;160160.00;;;;5024456;28;20508;-79
2022/01/11 10:56:40;;;;;;;15.77;11.87;;;7.40;1.00;8.20;102211.00;;;;5022916;28;20449;-78
2022/01/11 10:59:12;;;;;;;15.73;12.50;;;7.60;1.00;8.20;102200.00;;;;5021907;28;20461;-79
2022/01/11 11:01:48;;;;;;;12.90;10.90;;;7.60;1.00;8.20;102201.00;;;;5032307;28;20467;-78
2022/01/11 11:04:30;;;;;;;17.23;11.83;;;7.50;1.00;8.20;68075.00;;;;5036693;28;20468;-79
2022/01/11 11:07:12;;;;;;;12.97;11.00;;;7.60;1.00;8.10;102207.00;;;;5052307;28;20448;-79
2022/01/11 11:09:46;;;;;;;16.17;12.10;;;7.50;1.00;8.10;102195.00;;;;5058934;28;20473;-79
2022/01/11 11:12:17;;;;;;;18.67;11.80;;;7.60;1.00;8.10;102210.00;;;;5036671;28;20445;-78
2022/01/11 11:15:09;;;;;;;17.63;11.83;;;7.60;1.00;8.10;102201.00;;;;5045488;28;20465;-79
2022/01/11 11:18:00;;;;;;;13.50;10.43;;;7.50;1.00;8.40;68118.00;;;;5028728;28;21020;-79